Time;durP1;ratioP1;P1;durP2;ratioP2;P2;SDS_P1;SDS_P2;PMS_P1;PMS_P2;Temp;Humidity;BMP_temperature;BMP_pressure;BME280_temperature;BME280_humidity;BME280_pressure;Samples;Min_cycle;Max_cycle;Signal;HPM_P1;HPM_P2
2020/12/04 00:01:21;;;;;;;11.65;8.70;;;5.50;99.90;;;;;;4912071;29;20047;-84
2020/12/04 00:03:47;;;;;;;9.80;8.50;;;5.50;99.90;;;;;;4925539;29;20028;-83
2020/12/04 00:06:13;;;;;;;12.07;9.07;;;5.60;99.90;;;;;;4907613;29;20090;-85
2020/12/04 00:08:41;;;;;;;12.50;9.45;;;5.50;99.90;;;;;;4906399;29;20026;-85
2020/12/04 00:11:07;;;;;;;10.88;8.68;;;5.50;99.90;;;;;;4906870;29;20036;-86
2020/12/04 00:13:33;;;;;;;12.43;10.10;;;5.60;99.90;;;;;;4906055;29;20049;-85
2020/12/04 00:16:00;;;;;;;12.15;8.63;;;5.50;99.90;;;;;;4891217;29;20031;-86
2020/12/04 00:18:26;;;;;;;10.80;9.13;;;5.60;99.90;;;;;;4922772;29;20028;-84
2020/12/04 00:20:52;;;;;;;11.02;9.23;;;5.50;99.90;;;;;;4922192;29;20023;-85
2020/12/04 00:23:17;;;;;;;10.15;8.30;;;5.50;99.90;;;;;;4939346;29;20441;-85
2020/12/04 00:25:44;;;;;;;12.02;8.52;;;5.50;99.90;;;;;;4890587;29;20035;-83
2020/12/04 00:28:11;;;;;;;11.82;8.73;;;5.50;99.90;;;;;;4906380;29;20028;-86
2020/12/04 00:30:37;;;;;;;10.27;8.27;;;5.50;99.90;;;;;;4890645;29;20031;-85
2020/12/04 00:33:03;;;;;;;9.75;8.13;;;5.50;99.90;;;;;;4922405;29;20494;-85
2020/12/04 00:35:31;;;;;;;11.23;8.93;;;5.50;99.90;;;;;;4938922;29;20024;-84
2020/12/04 00:37:56;;;;;;;10.25;7.82;;;5.50;99.90;;;;;;4921700;29;20023;-86
2020/12/04 00:40:22;;;;;;;9.85;8.30;;;5.50;99.90;;;;;;4906479;29;20052;-85
2020/12/04 00:42:48;;;;;;;10.25;7.95;;;5.50;99.90;;;;;;4938905;29;20023;-84
2020/12/04 00:45:14;;;;;;;8.23;7.10;;;5.50;99.90;;;;;;4890113;29;20043;-84
2020/12/04 00:47:41;;;;;;;8.40;7.50;;;5.50;99.90;;;;;;4921359;29;20028;-86
2020/12/04 00:50:07;;;;;;;10.30;7.82;;;5.50;99.90;;;;;;4939043;29;20028;-84
2020/12/04 00:52:32;;;;;;;8.95;7.32;;;5.40;99.90;;;;;;4922204;29;20036;-84
2020/12/04 00:54:58;;;;;;;9.27;8.27;;;5.50;99.90;;;;;;4906122;29;20087;-85
2020/12/04 00:57:24;;;;;;;10.02;8.20;;;5.40;99.90;;;;;;4921700;29;20043;-85
2020/12/04 00:59:50;;;;;;;11.10;8.60;;;5.40;99.90;;;;;;4905873;29;20046;-85
2020/12/04 01:02:16;;;;;;;10.13;8.10;;;5.50;99.90;;;;;;4922378;29;20461;-86
2020/12/04 01:04:42;;;;;;;8.40;7.45;;;5.50;99.90;;;;;;4921357;29;20033;-85
2020/12/04 01:07:08;;;;;;;8.35;7.55;;;5.50;99.90;;;;;;4890225;29;20202;-85
2020/12/04 01:09:34;;;;;;;9.05;7.70;;;5.50;99.90;;;;;;4890409;29;20028;-84
2020/12/04 01:12:00;;;;;;;9.52;7.93;;;5.50;99.90;;;;;;4921225;29;20458;-85
2020/12/04 01:14:27;;;;;;;11.75;8.43;;;5.50;99.90;;;;;;4921144;29;20048;-86
2020/12/04 01:16:53;;;;;;;10.88;9.05;;;5.40;99.90;;;;;;4925152;29;20023;-83
2020/12/04 01:19:19;;;;;;;10.95;9.30;;;5.40;99.90;;;;;;4926487;29;20043;-84
2020/12/04 01:21:49;;;;;;;13.68;9.98;;;5.40;99.90;;;;;;4914951;29;20032;-85
2020/12/04 01:24:17;;;;;;;11.48;9.60;;;5.40;99.90;;;;;;4928479;29;20024;-83
2020/12/04 01:26:43;;;;;;;11.88;10.60;;;5.40;99.90;;;;;;4925095;29;20032;-84
2020/12/04 01:29:09;;;;;;;12.88;10.77;;;5.40;99.90;;;;;;4907478;29;20030;-84
2020/12/04 01:31:35;;;;;;;15.43;10.95;;;5.40;99.90;;;;;;4938392;29;20106;-84
2020/12/04 01:34:00;;;;;;;13.98;11.68;;;5.30;99.90;;;;;;4905450;29;20024;-85
2020/12/04 01:36:32;;;;;;;13.93;10.05;;;5.30;99.90;;;;;;4938573;29;20032;-85
2020/12/04 01:38:58;;;;;;;13.52;10.40;;;5.40;99.90;;;;;;4928434;29;20027;-84
2020/12/04 01:41:24;;;;;;;13.38;10.30;;;5.40;99.90;;;;;;4930381;29;20027;-84
2020/12/04 01:43:50;;;;;;;14.55;10.10;;;5.40;99.90;;;;;;4930486;29;20047;-84
2020/12/04 01:46:16;;;;;;;14.02;11.30;;;5.40;99.90;;;;;;4925541;29;20030;-84
2020/12/04 01:48:44;;;;;;;13.68;11.20;;;5.30;99.90;;;;;;4921631;29;20470;-83
2020/12/04 01:51:11;;;;;;;14.13;10.95;;;5.30;99.90;;;;;;4921190;29;20083;-84
2020/12/04 01:53:39;;;;;;;16.50;11.52;;;5.30;99.90;;;;;;4937599;29;20404;-84
2020/12/04 01:56:07;;;;;;;17.80;11.93;;;5.30;99.90;;;;;;4921127;29;20024;-85
2020/12/04 01:58:33;;;;;;;15.43;11.45;;;5.30;99.90;;;;;;4920359;29;20066;-84
2020/12/04 02:00:59;;;;;;;14.38;10.70;;;5.30;99.90;;;;;;4907193;29;20031;-84
2020/12/04 02:03:24;;;;;;;14.82;11.45;;;5.30;99.90;;;;;;4949563;29;20079;-85
2020/12/04 02:05:57;;;;;;;18.80;12.13;;;5.30;99.90;;;;;;4929787;29;20023;-84
2020/12/04 02:08:47;;;;;;;17.20;10.93;;;5.30;99.90;;;;;;4943447;29;20031;-86
2020/12/04 02:11:20;;;;;;;15.57;11.00;;;5.30;99.90;;;;;;4939585;29;20087;-83
2020/12/04 02:13:48;;;;;;;15.00;10.23;;;5.30;99.90;;;;;;4927417;29;20044;-84
2020/12/04 02:16:19;;;;;;;13.82;10.98;;;5.30;99.90;;;;;;4938253;29;20132;-83
2020/12/04 02:18:45;;;;;;;14.43;10.55;;;5.30;99.90;;;;;;4920907;29;20381;-85
2020/12/04 02:21:11;;;;;;;16.98;10.82;;;5.30;99.90;;;;;;4940961;29;20057;-85
2020/12/04 02:23:39;;;;;;;15.52;11.18;;;5.20;99.90;;;;;;4931950;29;20028;-86
2020/12/04 02:26:06;;;;;;;14.05;10.32;;;5.20;99.90;;;;;;4936770;29;20024;-83
2020/12/04 02:28:34;;;;;;;13.85;9.60;;;5.20;99.90;;;;;;4941257;29;20047;-89
2020/12/04 02:31:00;;;;;;;11.85;9.23;;;5.30;99.90;;;;;;4941101;29;20028;-85
2020/12/04 02:33:26;;;;;;;12.90;10.10;;;5.20;99.90;;;;;;4924119;29;20039;-84
2020/12/04 02:35:52;;;;;;;16.42;10.00;;;5.20;99.90;;;;;;4958054;29;20039;-84
2020/12/04 02:38:18;;;;;;;15.02;10.13;;;5.30;99.90;;;;;;4942615;29;20011;-84
2020/12/04 02:40:44;;;;;;;15.25;10.13;;;5.20;99.90;;;;;;4927935;29;20091;-85
2020/12/04 02:43:10;;;;;;;18.02;11.23;;;5.20;99.90;;;;;;4960130;28;20083;-85
2020/12/04 02:45:35;;;;;;;13.40;9.90;;;5.20;99.90;;;;;;4943709;28;20016;-86
2020/12/04 02:48:01;;;;;;;14.15;11.02;;;5.20;99.90;;;;;;4942564;29;20032;-85
2020/12/04 02:50:26;;;;;;;15.50;10.98;;;5.20;99.90;;;;;;4958824;29;20052;-85
2020/12/04 02:52:52;;;;;;;16.30;10.75;;;5.20;99.90;;;;;;4942258;29;20032;-86
2020/12/04 02:55:18;;;;;;;16.25;12.23;;;5.20;99.90;;;;;;4960122;29;20089;-85
2020/12/04 02:57:45;;;;;;;14.18;10.63;;;5.20;99.90;;;;;;4927574;28;20044;-88
2020/12/04 03:00:10;;;;;;;17.60;10.98;;;5.20;99.90;;;;;;4912047;28;20012;-84
2020/12/04 03:02:36;;;;;;;15.00;10.95;;;5.20;99.90;;;;;;4958705;28;20031;-87
2020/12/04 03:05:03;;;;;;;16.83;11.35;;;5.20;99.90;;;;;;4925285;29;20035;-85
2020/12/04 03:07:28;;;;;;;17.38;10.85;;;5.20;99.90;;;;;;4943167;29;20090;-85
2020/12/04 03:09:54;;;;;;;14.18;10.30;;;5.20;99.90;;;;;;4943399;29;20020;-85
2020/12/04 03:12:20;;;;;;;17.45;10.93;;;5.20;99.90;;;;;;4962652;28;20040;-85
2020/12/04 03:14:45;;;;;;;14.15;10.32;;;5.20;99.90;;;;;;4930705;29;20075;-85
2020/12/04 03:17:12;;;;;;;14.68;10.43;;;5.20;99.90;;;;;;4945470;29;20028;-85
2020/12/04 03:19:37;;;;;;;14.75;10.38;;;5.30;99.90;;;;;;4940259;29;20034;-84
2020/12/04 03:22:03;;;;;;;13.93;10.30;;;5.20;99.90;;;;;;4939988;29;20095;-85
2020/12/04 03:24:33;;;;;;;15.23;10.48;;;5.30;99.90;;;;;;4930645;29;20031;-85
2020/12/04 03:26:59;;;;;;;13.48;9.55;;;5.20;99.90;;;;;;4954553;29;20438;-85
2020/12/04 03:29:24;;;;;;;13.95;10.38;;;5.30;99.90;;;;;;4923936;29;20019;-85
2020/12/04 03:31:50;;;;;;;12.35;9.50;;;5.30;99.90;;;;;;4924082;29;20032;-84
2020/12/04 03:34:16;;;;;;;14.35;10.52;;;5.30;99.90;;;;;;4907018;29;20032;-85
2020/12/04 03:36:41;;;;;;;12.23;9.73;;;5.20;99.90;;;;;;4922425;29;20135;-84
2020/12/04 03:39:07;;;;;;;15.95;9.40;;;5.30;99.90;;;;;;4907139;29;20031;-84
2020/12/04 03:41:33;;;;;;;12.30;9.63;;;5.30;99.90;;;;;;4922662;29;20106;-84
2020/12/04 03:43:59;;;;;;;13.20;9.23;;;5.30;99.90;;;;;;4939571;29;20036;-84
2020/12/04 03:46:25;;;;;;;11.63;9.10;;;5.30;99.90;;;;;;4922787;29;20028;-84
2020/12/04 03:48:50;;;;;;;10.90;7.85;;;5.40;99.90;;;;;;4939616;29;20028;-85
2020/12/04 03:51:16;;;;;;;10.93;8.43;;;5.40;99.90;;;;;;4906803;29;20091;-85
2020/12/04 03:53:42;;;;;;;9.55;7.05;;;5.40;99.90;;;;;;4939342;29;20098;-85
2020/12/04 03:56:09;;;;;;;9.68;6.30;;;5.50;99.90;;;;;;4906727;29;20028;-86
2020/12/04 03:58:34;;;;;;;8.93;6.57;;;5.50;99.90;;;;;;4906900;29;20028;-86
2020/12/04 04:01:00;;;;;;;8.50;6.28;;;5.50;99.90;;;;;;4939016;29;20517;-85
2020/12/04 04:03:26;;;;;;;8.60;6.60;;;5.50;99.90;;;;;;4906928;29;20032;-85
2020/12/04 04:05:51;;;;;;;9.63;6.38;;;5.50;99.90;;;;;;4939192;29;20024;-85
2020/12/04 04:08:17;;;;;;;9.38;6.55;;;5.60;99.90;;;;;;4923276;29;20035;-84
2020/12/04 04:10:43;;;;;;;10.27;6.57;;;5.60;99.90;;;;;;4906498;29;20450;-85
2020/12/04 04:13:08;;;;;;;8.10;6.55;;;5.60;99.90;;;;;;4922555;29;20035;-85
2020/12/04 04:15:34;;;;;;;8.98;6.70;;;5.60;99.90;;;;;;4890536;29;20105;-84
2020/12/04 04:18:01;;;;;;;7.43;6.00;;;5.60;99.90;;;;;;4906208;29;20493;-85
2020/12/04 04:20:26;;;;;;;8.82;6.75;;;5.60;99.90;;;;;;4921875;29;20024;-85
2020/12/04 04:22:52;;;;;;;7.35;6.20;;;5.60;99.90;;;;;;4939425;29;20031;-85
2020/12/04 04:25:18;;;;;;;7.13;5.80;;;5.70;99.90;;;;;;4938994;29;20020;-84
2020/12/04 04:27:44;;;;;;;7.38;4.88;;;5.70;99.90;;;;;;4921534;29;20045;-85
2020/12/04 04:30:10;;;;;;;6.05;4.78;;;5.70;99.90;;;;;;4921832;29;20035;-85
2020/12/04 04:32:36;;;;;;;9.05;5.38;;;5.70;99.90;;;;;;4921717;29;20039;-83
2020/12/04 04:35:03;;;;;;;7.97;5.28;;;5.70;99.90;;;;;;4921433;29;20035;-86
2020/12/04 04:37:29;;;;;;;7.45;5.38;;;5.80;99.90;;;;;;4922625;29;20034;-84
2020/12/04 04:39:54;;;;;;;6.70;4.85;;;5.80;99.90;;;;;;4938688;29;20024;-85
2020/12/04 04:42:20;;;;;;;7.22;4.72;;;5.80;99.90;;;;;;4939328;29;20043;-85
2020/12/04 04:44:45;;;;;;;7.53;5.32;;;5.80;99.90;;;;;;4939922;29;20034;-85
2020/12/04 04:47:31;;;;;;;5.65;4.63;;;5.80;99.90;;;;;;4930912;29;20027;-83
2020/12/04 04:49:57;;;;;;;6.82;5.10;;;5.80;99.90;;;;;;4922770;29;20075;-84
2020/12/04 04:52:24;;;;;;;5.15;4.28;;;5.80;99.90;;;;;;4890257;29;20489;-84
2020/12/04 04:54:50;;;;;;;6.78;4.63;;;5.90;99.90;;;;;;4921173;29;20020;-85
2020/12/04 04:57:21;;;;;;;4.70;3.92;;;5.90;99.90;;;;;;4921605;29;20027;-85
2020/12/04 04:59:46;;;;;;;6.82;4.65;;;5.90;99.90;;;;;;4938348;29;20083;-84
2020/12/04 05:02:13;;;;;;;4.82;3.67;;;6.00;99.90;;;;;;4905781;29;20477;-84
2020/12/04 05:04:57;;;;;;;4.55;3.40;;;5.90;99.90;;;;;;4921638;29;20032;-85
2020/12/04 05:07:31;;;;;;;4.30;3.17;;;6.00;99.90;;;;;;4905454;29;20311;-84
2020/12/04 05:10:17;;;;;;;5.18;3.58;;;6.00;99.90;;;;;;4921036;29;20024;-84
2020/12/04 05:12:45;;;;;;;5.32;3.40;;;6.00;99.90;;;;;;4905337;29;20493;-85
2020/12/04 05:15:23;;;;;;;4.45;3.67;;;6.00;99.90;;;;;;4905011;29;20051;-85
2020/12/04 05:18:06;;;;;;;3.63;3.13;;;5.90;99.90;;;;;;4920786;29;20031;-85
2020/12/04 05:20:33;;;;;;;4.05;3.08;;;5.90;99.90;;;;;;4925944;29;20031;-84
2020/12/04 05:22:59;;;;;;;4.18;3.47;;;5.90;99.90;;;;;;4905043;29;20481;-84
2020/12/04 05:25:25;;;;;;;3.58;3.03;;;5.90;99.90;;;;;;4937853;29;20023;-84
2020/12/04 05:27:51;;;;;;;4.40;3.15;;;5.90;99.90;;;;;;4920386;29;20035;-84
2020/12/04 05:30:26;;;;;;;4.43;2.88;;;5.90;99.90;;;;;;4920934;29;20035;-84
2020/12/04 05:33:02;;;;;;;3.65;3.08;;;5.80;99.90;;;;;;4937154;29;20462;-84
2020/12/04 05:35:28;;;;;;;3.67;3.03;;;5.80;99.90;;;;;;4920022;29;20075;-85
2020/12/04 05:38:23;;;;;;;3.42;3.08;;;5.90;99.90;;;;;;4920712;29;20035;-84
2020/12/04 05:40:51;;;;;;;4.80;2.90;;;5.80;99.90;;;;;;4917099;29;20199;-85
2020/12/04 05:43:31;;;;;;;3.00;2.55;;;5.80;99.90;;;;;;4920395;29;20079;-84
2020/12/04 05:46:23;;;;;;;4.07;2.95;;;5.80;99.90;;;;;;4920415;29;20484;-84
2020/12/04 05:48:57;;;;;;;2.50;2.20;;;5.90;99.90;;;;;;4937611;29;20023;-84
2020/12/04 05:51:28;;;;;;;3.60;2.92;;;5.90;99.90;;;;;;4938635;29;20102;-84
2020/12/04 05:53:55;;;;;;;2.88;2.30;;;6.00;99.90;;;;;;4919916;29;20023;-83
2020/12/04 05:56:21;;;;;;;3.65;2.17;;;6.10;99.90;;;;;;4920400;29;20026;-84
2020/12/04 05:58:48;;;;;;;2.65;2.33;;;6.20;99.90;;;;;;4919616;29;20458;-85
2020/12/04 06:01:16;;;;;;;2.92;2.33;;;6.20;99.90;;;;;;4919928;29;20153;-84
2020/12/04 06:03:43;;;;;;;4.82;2.40;;;6.20;99.90;;;;;;4904395;29;20058;-84
2020/12/04 06:06:11;;;;;;;4.30;2.13;;;6.20;99.90;;;;;;4904322;29;20469;-84
2020/12/04 06:08:41;;;;;;;2.58;2.15;;;6.20;99.90;;;;;;4936841;29;20042;-84
2020/12/04 06:11:07;;;;;;;3.38;2.60;;;6.20;99.90;;;;;;4888838;29;20019;-84
2020/12/04 06:13:36;;;;;;;2.97;2.17;;;6.20;99.90;;;;;;4904090;29;20035;-85
2020/12/04 06:16:13;;;;;;;4.95;2.67;;;6.20;99.90;;;;;;4920142;29;20028;-84
2020/12/04 06:18:40;;;;;;;2.25;1.80;;;6.20;99.90;;;;;;4905314;29;20051;-85
2020/12/04 06:21:06;;;;;;;2.80;2.10;;;6.30;99.90;;;;;;4919780;29;20114;-84
2020/12/04 06:23:33;;;;;;;3.38;2.47;;;6.30;99.90;;;;;;4904226;29;20087;-83
2020/12/04 06:26:07;;;;;;;3.13;2.10;;;6.40;99.90;;;;;;4904889;29;20542;-84
2020/12/04 06:28:40;;;;;;;3.40;2.47;;;6.40;99.90;;;;;;4938741;29;20051;-86
2020/12/04 06:31:12;;;;;;;3.30;2.35;;;6.40;99.90;;;;;;4905977;29;20038;-85
2020/12/04 06:33:42;;;;;;;4.25;2.28;;;6.40;99.90;;;;;;4921825;29;20019;-84
2020/12/04 06:36:10;;;;;;;3.03;2.38;;;6.40;99.90;;;;;;4920114;29;20043;-84
2020/12/04 06:38:38;;;;;;;4.60;2.40;;;6.40;99.90;;;;;;4920993;29;20028;-84
2020/12/04 06:41:23;;;;;;;2.40;2.10;;;6.50;99.90;;;;;;4920324;29;20024;-83
2020/12/04 06:43:51;;;;;;;6.45;3.10;;;6.50;99.90;;;;;;4919411;29;20023;-85
2020/12/04 06:46:33;;;;;;;3.05;2.45;;;6.60;99.90;;;;;;4919823;29;20051;-83
2020/12/04 06:49:12;;;;;;;2.45;1.90;;;6.60;99.90;;;;;;4919623;29;20020;-84
2020/12/04 06:51:39;;;;;;;2.60;2.05;;;6.60;99.90;;;;;;4919307;29;20074;-84
2020/12/04 06:54:08;;;;;;;3.08;2.35;;;6.70;99.90;;;;;;4919166;29;20032;-86
2020/12/04 06:56:34;;;;;;;2.10;1.73;;;6.70;99.90;;;;;;4919402;29;20114;-85
2020/12/04 06:59:01;;;;;;;2.28;1.83;;;6.70;99.90;;;;;;4904019;29;20118;-84
2020/12/04 07:01:27;;;;;;;2.15;1.75;;;6.70;99.90;;;;;;4936750;29;20030;-83
2020/12/04 07:03:56;;;;;;;3.30;1.92;;;6.80;99.90;;;;;;4919144;29;20023;-85
2020/12/04 07:06:25;;;;;;;1.98;1.77;;;6.80;99.90;;;;;;4937176;29;20110;-83
2020/12/04 07:09:03;;;;;;;2.75;1.90;;;6.80;99.90;;;;;;4919330;29;20023;-83
2020/12/04 07:11:29;;;;;;;2.13;1.60;;;6.90;99.90;;;;;;4919395;29;20086;-83
2020/12/04 07:13:56;;;;;;;4.82;2.08;;;6.80;99.90;;;;;;4935773;29;20051;-84
2020/12/04 07:16:21;;;;;;;2.17;1.55;;;6.80;99.90;;;;;;4919294;29;20038;-84
2020/12/04 07:18:54;;;;;;;2.55;1.63;;;6.80;99.90;;;;;;4919387;29;20023;-83
2020/12/04 07:21:21;;;;;;;3.25;1.80;;;6.80;99.90;;;;;;4919367;29;20043;-84
2020/12/04 07:23:47;;;;;;;3.00;1.80;;;6.90;99.90;;;;;;4926716;29;20031;-83
2020/12/04 07:26:18;;;;;;;3.47;1.73;;;6.90;99.90;;;;;;4927045;29;20012;-83
2020/12/04 07:28:45;;;;;;;2.97;1.42;;;6.90;99.90;;;;;;4921322;29;20032;-84
2020/12/04 07:31:15;;;;;;;3.28;1.40;;;7.00;99.90;;;;;;4936470;29;20063;-84
2020/12/04 07:33:56;;;;;;;2.40;1.27;;;7.00;99.90;;;;;;4903666;29;20028;-84
2020/12/04 07:36:22;;;;;;;1.73;1.50;;;7.00;99.90;;;;;;4910857;29;20038;-85
2020/12/04 07:38:57;;;;;;;3.20;1.50;;;7.00;99.90;;;;;;4924117;29;20042;-85
2020/12/04 07:41:36;;;;;;;;;;;7.00;99.90;;;;;;4930255;29;20027;-85
2020/12/04 07:44:05;;;;;;;2.10;1.70;;;7.00;99.90;;;;;;4924645;29;19911;-87
2020/12/04 07:46:32;;;;;;;3.05;1.50;;;7.00;99.90;;;;;;4915409;29;20029;-83
2020/12/04 07:49:12;;;;;;;1.88;1.65;;;7.00;99.90;;;;;;4935387;29;20122;-86
2020/12/04 07:51:41;;;;;;;4.40;1.70;;;7.00;99.90;;;;;;4924518;29;20028;-86
2020/12/04 07:54:23;;;;;;;2.42;1.40;;;7.00;99.90;;;;;;4919369;29;20042;-86
2020/12/04 07:56:57;;;;;;;2.38;1.67;;;7.00;99.90;;;;;;4921759;29;20422;-86
2020/12/04 07:59:29;;;;;;;3.40;1.42;;;7.00;99.90;;;;;;4937976;29;20023;-85
2020/12/04 08:01:56;;;;;;;2.65;1.33;;;7.00;99.90;;;;;;4925300;29;20024;-86
2020/12/04 08:04:21;;;;;;;2.30;1.38;;;7.00;99.90;;;;;;4920553;29;20103;-85
2020/12/04 08:06:48;;;;;;;3.53;1.33;;;7.10;99.90;;;;;;4901206;29;20059;-86
2020/12/04 08:09:19;;;;;;;2.67;1.23;;;7.10;99.90;;;;;;4920128;29;20060;-84
2020/12/04 08:11:54;;;;;;;3.45;1.50;;;7.10;99.90;;;;;;4900852;29;20036;-85
2020/12/04 08:14:24;;;;;;;;;;;7.20;99.90;;;;;;4913473;29;20438;-85
2020/12/04 08:16:54;;;;;;;6.95;1.30;;;7.20;99.90;;;;;;4920470;29;19903;-85
2020/12/04 08:19:23;;;;;;;2.22;1.23;;;7.20;99.90;;;;;;4919744;29;20028;-84
2020/12/04 08:21:59;;;;;;;3.35;1.10;;;7.30;99.90;;;;;;4921761;29;20023;-86
2020/12/04 08:24:45;;;;;;;2.50;1.27;;;7.30;99.90;;;;;;4923161;29;20023;-85
2020/12/04 08:27:14;;;;;;;1.52;1.00;;;7.30;99.90;;;;;;4939442;29;20047;-85
2020/12/04 08:29:42;;;;;;;2.20;1.20;;;7.30;99.90;;;;;;4921984;29;20039;-86
2020/12/04 08:32:09;;;;;;;3.03;1.25;;;7.30;99.90;;;;;;4921632;29;20032;-86
2020/12/04 08:34:36;;;;;;;2.92;0.95;;;7.30;99.90;;;;;;4921700;29;20024;-85
2020/12/04 08:37:08;;;;;;;1.27;1.10;;;7.30;99.90;;;;;;4921538;29;20024;-84
2020/12/04 08:39:37;;;;;;;1.60;0.93;;;7.30;99.90;;;;;;4920839;29;20031;-86
2020/12/04 08:42:14;;;;;;;1.95;1.10;;;7.30;99.90;;;;;;4922096;29;20039;-85
2020/12/04 08:44:41;;;;;;;4.53;1.10;;;7.30;99.90;;;;;;4922445;29;20079;-85
2020/12/04 08:47:06;;;;;;;0.80;0.80;;;7.30;99.90;;;;;;4907026;29;20104;-85
2020/12/04 08:49:32;;;;;;;1.67;0.90;;;7.30;99.90;;;;;;4913662;29;20505;-86
2020/12/04 08:51:57;;;;;;;3.60;1.20;;;7.30;99.90;;;;;;4921627;29;20028;-85
2020/12/04 08:54:24;;;;;;;2.35;0.90;;;7.30;99.90;;;;;;4909929;29;20028;-88
2020/12/04 08:56:55;;;;;;;1.42;0.93;;;7.30;99.90;;;;;;4941259;29;20031;-85
2020/12/04 08:59:23;;;;;;;1.15;1.00;;;7.30;99.90;;;;;;4939507;29;20050;-86
2020/12/04 09:01:51;;;;;;;1.10;1.00;;;7.30;99.90;;;;;;4940053;29;20043;-86
2020/12/04 09:04:17;;;;;;;1.90;1.15;;;7.30;99.90;;;;;;4941576;29;20028;-86
2020/12/04 09:06:44;;;;;;;1.27;1.17;;;7.30;99.90;;;;;;4943171;29;20027;-86
2020/12/04 09:09:10;;;;;;;1.85;0.90;;;7.30;99.90;;;;;;4927553;29;20020;-89
2020/12/04 09:11:35;;;;;;;0.93;0.90;;;7.30;99.90;;;;;;4944787;29;20028;-86
2020/12/04 09:14:01;;;;;;;3.33;1.20;;;7.30;99.90;;;;;;4927066;29;20050;-89
2020/12/04 09:16:26;;;;;;;1.35;1.00;;;7.40;99.90;;;;;;4925577;29;20134;-86
2020/12/04 09:18:52;;;;;;;2.05;1.40;;;7.40;99.90;;;;;;4943283;29;20051;-85
2020/12/04 09:21:18;;;;;;;1.23;1.13;;;7.30;99.90;;;;;;4927689;29;20016;-87
2020/12/04 09:23:43;;;;;;;3.08;1.17;;;7.30;99.90;;;;;;4929044;29;20063;-87
2020/12/04 09:26:09;;;;;;;1.52;1.23;;;7.40;99.90;;;;;;4944511;29;20028;-88
2020/12/04 09:28:34;;;;;;;1.42;1.15;;;7.40;99.90;;;;;;4926120;29;20027;-85
2020/12/04 09:31:00;;;;;;;1.35;1.25;;;7.40;99.90;;;;;;4912744;29;20040;-92
2020/12/04 09:33:26;;;;;;;1.38;1.27;;;7.40;99.90;;;;;;4944358;29;20091;-85
2020/12/04 09:35:51;;;;;;;3.22;1.27;;;7.40;99.90;;;;;;4923261;29;20028;-85
2020/12/04 09:38:17;;;;;;;3.08;1.48;;;7.40;99.90;;;;;;4928437;29;20071;-85
2020/12/04 09:40:42;;;;;;;6.18;1.70;;;7.40;99.90;;;;;;4928495;29;20027;-86
2020/12/04 09:43:08;;;;;;;1.40;1.20;;;7.40;99.90;;;;;;4940625;29;20047;-85
2020/12/04 09:45:34;;;;;;;2.97;1.10;;;7.50;99.90;;;;;;4922858;29;20434;-85
2020/12/04 09:48:00;;;;;;;1.58;1.20;;;7.50;99.90;;;;;;4904088;29;20358;-87
2020/12/04 09:50:25;;;;;;;1.60;1.50;;;7.60;99.90;;;;;;4933908;29;20031;-84
2020/12/04 09:52:51;;;;;;;3.22;1.40;;;7.60;99.90;;;;;;4918972;29;20040;-85
2020/12/04 09:55:17;;;;;;;1.55;1.08;;;7.70;99.90;;;;;;4914775;29;20038;-84
2020/12/04 09:57:43;;;;;;;2.05;1.40;;;7.70;99.90;;;;;;4919690;29;20126;-84
2020/12/04 10:00:10;;;;;;;1.63;1.30;;;7.70;99.90;;;;;;4920623;29;20067;-87
2020/12/04 10:02:36;;;;;;;1.60;1.48;;;7.70;99.90;;;;;;4933355;29;20032;-85
2020/12/04 10:05:02;;;;;;;2.95;1.15;;;7.70;99.90;;;;;;4928703;29;20040;-87
2020/12/04 10:07:28;;;;;;;1.60;1.35;;;7.70;99.90;;;;;;4922421;29;20023;-86
2020/12/04 10:09:56;;;;;;;1.60;1.27;;;7.80;99.90;;;;;;4915500;29;20116;-90
2020/12/04 10:12:22;;;;;;;2.03;1.23;;;7.70;99.90;;;;;;4904679;29;20070;-87
2020/12/04 10:14:47;;;;;;;2.60;1.33;;;7.70;99.90;;;;;;4903355;29;20405;-84
2020/12/04 10:17:13;;;;;;;2.00;1.42;;;7.70;99.90;;;;;;4919918;29;20075;-86
2020/12/04 10:19:39;;;;;;;2.55;1.38;;;7.60;99.90;;;;;;4888837;29;20035;-85
2020/12/04 10:22:05;;;;;;;3.10;1.45;;;7.60;99.90;;;;;;4896987;29;20040;-86
2020/12/04 10:24:31;;;;;;;2.42;1.48;;;7.60;99.90;;;;;;4920675;29;20028;-86
2020/12/04 10:26:57;;;;;;;7.22;1.65;;;7.60;99.90;;;;;;4920293;29;20428;-87
2020/12/04 10:29:23;;;;;;;2.28;1.42;;;7.60;99.90;;;;;;4920173;29;20023;-86
2020/12/04 10:31:49;;;;;;;4.65;1.63;;;7.60;99.90;;;;;;4919839;29;20032;-86
2020/12/04 10:34:16;;;;;;;2.60;1.50;;;7.60;99.90;;;;;;4919190;29;20043;-86
2020/12/04 10:36:42;;;;;;;4.85;1.75;;;7.60;99.90;;;;;;4934218;29;20027;-86
2020/12/04 10:39:10;;;;;;;3.30;1.58;;;7.50;99.90;;;;;;4938027;29;20028;-85
2020/12/04 10:41:37;;;;;;;2.05;1.45;;;7.50;99.90;;;;;;4905260;29;20028;-86
2020/12/04 10:44:05;;;;;;;5.55;1.73;;;7.50;99.90;;;;;;4919574;29;20024;-86
2020/12/04 10:46:31;;;;;;;2.85;1.80;;;7.50;99.90;;;;;;4919226;29;20058;-86
2020/12/04 10:48:57;;;;;;;3.50;1.80;;;7.60;99.90;;;;;;4919585;29;20508;-84
2020/12/04 10:51:23;;;;;;;2.70;1.95;;;7.50;99.90;;;;;;4918986;29;20028;-87
2020/12/04 10:53:50;;;;;;;3.25;1.77;;;7.50;99.90;;;;;;4919718;29;20024;-86
2020/12/04 10:56:23;;;;;;;3.90;2.15;;;7.50;99.90;;;;;;4919272;29;20055;-84
2020/12/04 10:58:50;;;;;;;4.63;1.58;;;7.60;99.90;;;;;;4919352;29;20030;-84
2020/12/04 11:06:21;;;;;;;4.10;1.98;;;7.60;99.90;;;;;;4936654;29;20410;-86
2020/12/04 11:08:48;;;;;;;3.95;1.65;;;7.50;99.90;;;;;;4903657;29;20027;-86
2020/12/04 11:11:15;;;;;;;7.28;1.73;;;7.50;99.90;;;;;;4936602;29;20094;-85
2020/12/04 11:13:41;;;;;;;2.70;1.65;;;7.60;99.90;;;;;;4919573;29;20052;-84
2020/12/04 11:16:07;;;;;;;7.25;2.50;;;7.50;99.90;;;;;;4922363;29;20058;-85
2020/12/04 11:18:33;;;;;;;3.10;1.70;;;7.50;99.90;;;;;;4922266;29;20473;-83
2020/12/04 11:20:59;;;;;;;4.20;1.60;;;7.50;99.90;;;;;;4891130;29;20051;-84
2020/12/04 11:23:25;;;;;;;4.75;2.17;;;7.50;99.90;;;;;;4921889;29;20031;-82
2020/12/04 11:25:50;;;;;;;5.15;1.90;;;7.60;99.90;;;;;;4924545;29;20035;-85
2020/12/04 11:28:16;;;;;;;3.40;1.67;;;7.60;99.90;;;;;;4923739;29;20123;-84
2020/12/04 11:30:42;;;;;;;5.60;2.38;;;7.60;99.90;;;;;;4890899;29;20032;-86
2020/12/04 11:33:07;;;;;;;3.53;2.05;;;7.60;99.90;;;;;;4921757;29;20127;-85
2020/12/04 11:35:33;;;;;;;3.50;1.83;;;7.60;99.90;;;;;;4899935;29;20115;-86
2020/12/04 11:37:59;;;;;;;1.98;1.65;;;7.60;99.90;;;;;;4907752;29;20038;-82
2020/12/04 11:40:25;;;;;;;3.35;1.88;;;7.60;99.90;;;;;;4922605;29;20062;-85
2020/12/04 11:42:51;;;;;;;1.95;1.50;;;7.60;99.90;;;;;;4922216;29;20031;-86
2020/12/04 11:45:17;;;;;;;3.50;1.60;;;7.50;99.90;;;;;;4919927;29;20040;-85
2020/12/04 11:47:43;;;;;;;3.00;1.30;;;7.50;99.90;;;;;;4919431;29;20115;-86
2020/12/04 11:50:15;;;;;;;1.48;1.27;;;7.50;99.90;;;;;;4922120;29;20075;-86
2020/12/04 11:52:41;;;;;;;2.60;1.40;;;7.50;99.90;;;;;;4939329;29;20086;-86
2020/12/04 11:55:09;;;;;;;2.20;1.70;;;7.50;99.90;;;;;;4906387;29;20039;-85
2020/12/04 11:57:35;;;;;;;6.47;1.38;;;7.50;99.90;;;;;;4906740;29;20391;-85
2020/12/04 12:00:00;;;;;;;2.03;1.20;;;7.50;99.90;;;;;;4921013;29;20028;-84
2020/12/04 12:02:27;;;;;;;1.48;1.15;;;7.50;99.90;;;;;;4938957;29;20540;-85
2020/12/04 12:04:53;;;;;;;2.33;1.35;;;7.40;99.90;;;;;;4922292;29;20028;-85
2020/12/04 12:07:19;;;;;;;2.20;1.08;;;7.50;99.90;;;;;;4922453;29;20039;-84
2020/12/04 12:09:47;;;;;;;2.47;1.30;;;7.40;99.90;;;;;;4906870;29;20035;-83
2020/12/04 12:12:14;;;;;;;4.10;1.38;;;7.40;99.90;;;;;;4947197;29;20047;-86
2020/12/04 12:14:40;;;;;;;3.45;1.40;;;7.30;99.90;;;;;;4946392;29;20059;-83
2020/12/04 12:17:06;;;;;;;2.20;1.10;;;7.30;99.90;;;;;;4946026;29;20032;-89
2020/12/04 12:19:33;;;;;;;1.67;1.10;;;7.30;99.90;;;;;;4946111;29;20028;-84
2020/12/04 12:21:58;;;;;;;1.85;1.00;;;7.30;99.90;;;;;;4930636;29;20016;-83
2020/12/04 12:24:24;;;;;;;1.30;1.20;;;7.30;99.90;;;;;;4955651;29;20087;-83
2020/12/04 12:26:49;;;;;;;3.92;1.30;;;7.30;99.90;;;;;;4908608;29;20064;-83
2020/12/04 12:29:15;;;;;;;1.50;1.10;;;7.30;99.90;;;;;;4925206;29;20047;-84
2020/12/04 12:31:41;;;;;;;6.85;1.95;;;7.30;99.90;;;;;;4907896;29;20502;-83
2020/12/04 12:34:06;;;;;;;2.95;1.40;;;7.30;99.90;;;;;;4908293;29;20066;-83
2020/12/04 12:36:32;;;;;;;2.22;1.40;;;7.30;99.90;;;;;;4917427;29;20095;-82
2020/12/04 12:38:58;;;;;;;2.20;1.25;;;7.30;99.90;;;;;;4929696;29;20028;-85
2020/12/04 12:41:24;;;;;;;3.47;1.60;;;7.30;99.90;;;;;;4945456;29;20091;-83
2020/12/04 12:43:50;;;;;;;1.30;1.20;;;7.30;99.90;;;;;;4944320;29;20043;-83
2020/12/04 12:46:16;;;;;;;2.03;1.45;;;7.30;99.90;;;;;;4945467;29;20043;-85
2020/12/04 12:48:41;;;;;;;2.60;1.35;;;7.30;99.90;;;;;;4929956;29;20035;-85
2020/12/04 12:51:07;;;;;;;2.53;1.33;;;7.30;99.90;;;;;;4937779;29;20039;-84
2020/12/04 12:53:33;;;;;;;3.22;1.33;;;7.30;99.90;;;;;;4913193;29;20075;-84
2020/12/04 12:55:59;;;;;;;2.47;1.33;;;7.30;99.90;;;;;;4911833;29;20470;-83
2020/12/04 12:58:24;;;;;;;2.25;1.50;;;7.40;99.90;;;;;;4928016;29;20036;-84
2020/12/04 13:00:50;;;;;;;3.85;1.30;;;7.30;99.90;;;;;;4907987;29;20051;-85